createdAt,value
2023-03-16T00:00:28.628Z,0.80
2023-03-16T00:02:57.190Z,0.80
2023-03-16T00:05:25.978Z,0.80
2023-03-16T00:07:54.434Z,0.80
2023-03-16T00:10:27.656Z,0.80
2023-03-16T00:12:58.776Z,0.80
2023-03-16T00:15:27.084Z,0.70
2023-03-16T00:17:55.592Z,0.70
2023-03-16T00:20:24.208Z,0.70
2023-03-16T00:22:52.469Z,0.70
2023-03-16T00:25:20.874Z,0.70
2023-03-16T00:27:49.177Z,0.60
2023-03-16T00:30:19.207Z,0.60
2023-03-16T00:32:47.565Z,0.60
2023-03-16T00:35:18.960Z,0.50
2023-03-16T00:37:47.287Z,0.40
2023-03-16T00:40:15.740Z,0.40
2023-03-16T00:42:44.373Z,0.40
2023-03-16T00:45:12.886Z,0.40
2023-03-16T00:47:43.306Z,0.30
2023-03-16T00:50:12.637Z,0.30
2023-03-16T00:52:42.226Z,0.30
2023-03-16T00:55:11.200Z,0.20
2023-03-16T00:57:39.628Z,0.20
2023-03-16T01:00:15.110Z,0.20
2023-03-16T01:02:45.407Z,0.10
2023-03-16T01:05:15.174Z,0.10
2023-03-16T01:07:45.119Z,0.10
2023-03-16T01:10:14.122Z,0.00
2023-03-16T01:12:45.548Z,0.00
2023-03-16T01:15:14.359Z,0.00
2023-03-16T01:17:44.033Z,0.00
2023-03-16T01:20:15.588Z,-0.10
2023-03-16T01:22:43.835Z,-0.10
2023-03-16T01:25:13.517Z,-0.10
2023-03-16T01:27:43.528Z,-0.10
2023-03-16T01:30:13.448Z,-0.10
2023-03-16T01:32:42.157Z,-0.20
2023-03-16T01:35:14.232Z,-0.20
2023-03-16T01:37:42.876Z,-0.30
2023-03-16T01:40:20.990Z,-0.30
2023-03-16T01:42:51.271Z,-0.40
2023-03-16T01:45:58.255Z,-0.40
2023-03-16T01:48:28.258Z,-0.50
2023-03-16T01:50:58.434Z,-0.60
2023-03-16T01:53:27.063Z,-0.60
2023-03-16T01:55:55.907Z,-0.60
2023-03-16T01:58:25.458Z,-0.60
2023-03-16T02:00:54.054Z,-0.60
2023-03-16T02:03:24.284Z,-0.70
2023-03-16T02:06:05.574Z,-0.70
2023-03-16T02:08:37.742Z,-0.70
2023-03-16T02:11:08.914Z,-0.70
2023-03-16T02:13:59.730Z,-0.70
2023-03-16T02:16:28.186Z,-0.70
2023-03-16T02:18:56.622Z,-0.70
2023-03-16T02:21:33.283Z,-0.70
2023-03-16T02:24:03.798Z,-0.70
2023-03-16T02:26:40.400Z,-0.70
2023-03-16T02:29:18.196Z,-0.60
2023-03-16T02:31:49.760Z,-0.60
2023-03-16T02:34:19.088Z,-0.60
2023-03-16T02:36:50.488Z,-0.60
2023-03-16T02:39:22.959Z,-0.70
2023-03-16T02:41:51.892Z,-0.70
2023-03-16T02:44:24.372Z,-0.70
2023-03-16T02:47:01.461Z,-0.70
2023-03-16T02:49:37.483Z,-0.70
2023-03-16T02:52:06.666Z,-0.70
2023-03-16T02:54:34.938Z,-0.70
2023-03-16T02:57:03.453Z,-0.70
2023-03-16T02:59:32.843Z,-0.70
2023-03-16T03:02:02.517Z,-0.70
2023-03-16T03:04:33.034Z,-0.70
2023-03-16T03:07:04.911Z,-0.70
2023-03-16T03:09:42.154Z,-0.70
2023-03-16T03:12:10.939Z,-0.70
2023-03-16T03:14:39.278Z,-0.70
2023-03-16T03:17:13.284Z,-0.80
2023-03-16T03:19:41.771Z,-0.80
2023-03-16T03:22:10.034Z,-0.80
2023-03-16T03:24:38.239Z,-0.80
2023-03-16T03:27:06.607Z,-0.90
2023-03-16T03:29:38.871Z,-0.90
2023-03-16T03:32:09.212Z,-0.90
2023-03-16T03:34:38.032Z,-0.90
2023-03-16T03:37:07.192Z,-0.90
2023-03-16T03:39:39.678Z,-0.90
2023-03-16T03:42:09.674Z,-0.90
2023-03-16T03:44:38.449Z,-0.90
2023-03-16T03:47:07.121Z,-0.90
2023-03-16T03:49:37.086Z,-0.90
2023-03-16T03:52:05.535Z,-0.90
2023-03-16T03:54:34.115Z,-0.90
2023-03-16T03:57:14.259Z,-0.90
2023-03-16T03:59:43.910Z,-0.90
2023-03-16T04:02:41.238Z,-0.90
2023-03-16T04:05:18.611Z,-0.90
2023-03-16T04:07:47.411Z,-0.90
2023-03-16T04:10:15.777Z,-0.90
2023-03-16T04:12:44.890Z,-0.90
2023-03-16T04:15:15.331Z,-0.90
2023-03-16T04:17:56.523Z,-0.90
2023-03-16T04:20:29.771Z,-0.90
2023-03-16T04:22:59.301Z,-0.90
2023-03-16T04:25:30.436Z,-1.00
2023-03-16T04:27:59.510Z,-1.00
2023-03-16T04:30:31.465Z,-1.00
2023-03-16T04:33:14.907Z,-1.10
2023-03-16T04:35:46.135Z,-1.10
2023-03-16T04:38:17.256Z,-1.10
2023-03-16T04:40:54.705Z,-1.10
2023-03-16T04:43:26.506Z,-1.10
2023-03-16T04:45:58.650Z,-1.20
2023-03-16T04:48:32.834Z,-1.20
2023-03-16T04:51:04.743Z,-1.20
2023-03-16T04:53:35.467Z,-1.20
2023-03-16T04:56:18.038Z,-1.20
2023-03-16T04:58:47.248Z,-1.30
2023-03-16T05:01:16.218Z,-1.30
2023-03-16T05:03:45.096Z,-1.20
2023-03-16T05:06:14.849Z,-1.20
2023-03-16T05:08:44.041Z,-1.20
2023-03-16T05:11:12.269Z,-1.20
2023-03-16T05:13:49.372Z,-1.20
2023-03-16T05:16:17.773Z,-1.20
2023-03-16T05:18:46.933Z,-1.20
2023-03-16T05:21:17.520Z,-1.20
2023-03-16T05:24:00.759Z,-1.10
2023-03-16T05:26:29.045Z,-1.10
2023-03-16T05:28:58.265Z,-1.20
2023-03-16T05:31:28.823Z,-1.20
2023-03-16T05:34:01.864Z,-1.20
2023-03-16T05:36:31.637Z,-1.20
2023-03-16T05:39:08.445Z,-1.20
2023-03-16T05:41:40.105Z,-1.20
2023-03-16T05:44:37.780Z,-1.20
2023-03-16T05:47:36.758Z,-1.20
2023-03-16T05:50:11.340Z,-1.20
2023-03-16T05:52:45.286Z,-1.20
2023-03-16T05:55:20.377Z,-1.10
2023-03-16T05:57:54.238Z,-1.10
2023-03-16T06:00:25.708Z,-1.00
2023-03-16T06:03:04.284Z,-1.00
2023-03-16T06:05:35.721Z,-1.00
2023-03-16T06:08:07.041Z,-1.00
2023-03-16T06:10:35.355Z,-0.90
2023-03-16T06:13:03.521Z,-0.90
2023-03-16T06:15:32.475Z,-0.90
2023-03-16T06:18:04.030Z,-0.80
2023-03-16T06:20:32.333Z,-0.70
2023-03-16T06:23:00.952Z,-0.70
2023-03-16T06:25:30.593Z,-0.60
2023-03-16T06:27:59.092Z,-0.60
2023-03-16T06:30:28.008Z,-0.50
2023-03-16T06:32:57.092Z,-0.50
2023-03-16T06:35:25.583Z,-0.40
2023-03-16T06:38:09.225Z,-0.30
2023-03-16T06:41:12.438Z,-0.20
2023-03-16T06:43:40.724Z,-0.10
2023-03-16T06:46:09.209Z,0.00
2023-03-16T06:48:37.754Z,0.10
2023-03-16T06:51:07.812Z,0.20
2023-03-16T06:53:37.564Z,0.30
2023-03-16T06:56:06.730Z,0.40
2023-03-16T06:58:40.765Z,0.50
2023-03-16T07:01:09.725Z,0.60
2023-03-16T07:03:37.946Z,0.70
2023-03-16T07:06:15.263Z,0.80
2023-03-16T07:08:44.979Z,0.90
2023-03-16T07:11:14.891Z,1.00
2023-03-16T07:13:44.762Z,1.10
2023-03-16T07:16:14.113Z,1.20
2023-03-16T07:18:44.438Z,1.30
2023-03-16T07:21:15.323Z,1.40
2023-03-16T07:23:44.757Z,1.50
2023-03-16T07:26:15.044Z,1.60
2023-03-16T07:28:53.299Z,1.70
2023-03-16T07:31:21.706Z,1.80
2023-03-16T07:33:50.116Z,1.90
2023-03-16T07:36:27.950Z,2.10
2023-03-16T07:39:00.350Z,2.20
2023-03-16T07:41:29.704Z,2.30
2023-03-16T07:44:16.209Z,2.40
2023-03-16T07:46:49.124Z,2.60
2023-03-16T07:49:17.794Z,2.70
2023-03-16T07:51:47.849Z,2.90
2023-03-16T07:54:19.049Z,3.00
2023-03-16T07:56:49.645Z,3.20
2023-03-16T07:59:34.491Z,3.40
2023-03-16T08:02:03.065Z,3.60
2023-03-16T08:04:32.204Z,3.80
2023-03-16T08:07:02.213Z,3.90
2023-03-16T08:09:43.980Z,4.10
2023-03-16T08:12:16.710Z,4.20
2023-03-16T08:14:46.604Z,4.40
2023-03-16T08:17:22.475Z,4.60
2023-03-16T08:19:51.478Z,4.80
2023-03-16T08:22:21.908Z,5.00
2023-03-16T08:24:50.685Z,5.10
2023-03-16T08:27:20.577Z,5.30
2023-03-16T08:29:54.735Z,5.30
2023-03-16T08:32:26.238Z,5.40
2023-03-16T08:34:54.684Z,5.50
2023-03-16T08:37:24.118Z,5.50
2023-03-16T08:39:55.235Z,5.60
2023-03-16T08:42:23.667Z,5.60
2023-03-16T08:45:00.915Z,5.70
2023-03-16T08:47:31.226Z,5.80
2023-03-16T08:50:00.347Z,5.70
2023-03-16T08:52:28.617Z,5.80
2023-03-16T08:55:03.325Z,5.90
2023-03-16T08:57:32.790Z,6.00
2023-03-16T09:00:05.525Z,6.10
2023-03-16T09:02:38.449Z,6.20
2023-03-16T09:05:08.567Z,6.40
2023-03-16T09:07:37.283Z,6.50
2023-03-16T09:10:06.746Z,6.70
2023-03-16T09:12:37.155Z,7.00
2023-03-16T09:15:08.926Z,7.20
2023-03-16T09:17:37.508Z,7.40
2023-03-16T09:20:21.844Z,7.60
2023-03-16T09:22:51.175Z,7.70
2023-03-16T09:25:19.991Z,7.80
2023-03-16T09:27:48.216Z,7.80
2023-03-16T09:30:18.159Z,7.90
2023-03-16T09:32:48.819Z,7.90
2023-03-16T09:35:17.504Z,7.80
2023-03-16T09:38:01.178Z,7.80
2023-03-16T09:40:33.511Z,7.80
2023-03-16T09:43:20.058Z,7.80
2023-03-16T09:45:57.897Z,7.90
2023-03-16T09:48:28.598Z,7.80
2023-03-16T09:50:58.461Z,7.90
2023-03-16T09:53:30.846Z,7.90
2023-03-16T09:56:03.704Z,8.00
2023-03-16T09:58:33.217Z,8.00
2023-03-16T10:01:12.062Z,8.10
2023-03-16T10:03:59.115Z,8.30
2023-03-16T10:06:28.069Z,8.40
2023-03-16T10:09:04.007Z,8.50
2023-03-16T10:11:36.585Z,8.60
2023-03-16T10:14:17.670Z,8.70
2023-03-16T10:16:51.419Z,8.80
2023-03-16T10:19:23.421Z,8.90
2023-03-16T10:21:55.772Z,9.00
2023-03-16T10:24:36.000Z,9.00
2023-03-16T10:27:06.494Z,9.00
2023-03-16T10:29:39.098Z,9.00
2023-03-16T10:32:14.672Z,9.10
2023-03-16T10:34:44.866Z,9.10
2023-03-16T10:37:15.353Z,9.30
2023-03-16T10:39:43.976Z,9.40
2023-03-16T10:42:17.953Z,9.50
2023-03-16T10:44:46.881Z,9.60
2023-03-16T10:47:23.023Z,9.60
2023-03-16T10:49:51.944Z,9.80
2023-03-16T10:52:24.002Z,10.20
2023-03-16T10:54:55.984Z,10.70
2023-03-16T10:57:27.045Z,11.40
2023-03-16T10:59:57.623Z,12.30
2023-03-16T11:02:34.270Z,13.30
2023-03-16T11:05:14.154Z,14.10
2023-03-16T11:07:50.455Z,14.80
2023-03-16T11:10:29.328Z,15.40
2023-03-16T11:13:03.879Z,15.80
2023-03-16T11:15:39.546Z,16.00
2023-03-16T11:18:16.723Z,16.30
2023-03-16T11:20:45.785Z,16.70
2023-03-16T11:23:18.696Z,17.00
2023-03-16T11:25:51.834Z,17.20
2023-03-16T11:28:32.413Z,17.60
2023-03-16T11:31:12.123Z,18.20
2023-03-16T11:33:42.653Z,18.80
2023-03-16T11:36:27.833Z,19.20
2023-03-16T11:39:05.978Z,19.60
2023-03-16T11:41:45.746Z,19.90
2023-03-16T11:44:23.540Z,20.20
2023-03-16T11:46:58.368Z,20.60
2023-03-16T11:49:56.324Z,20.90
2023-03-16T11:52:37.041Z,21.40
2023-03-16T11:55:20.526Z,21.90
2023-03-16T11:58:00.138Z,22.50
2023-03-16T12:00:36.785Z,22.90
2023-03-16T12:03:50.500Z,23.50
2023-03-16T12:06:32.969Z,24.10
2023-03-16T12:09:37.819Z,24.60
2023-03-16T12:12:18.734Z,24.90
2023-03-16T12:14:55.365Z,25.40
2023-03-16T12:17:29.516Z,25.90
2023-03-16T12:20:04.093Z,26.30
2023-03-16T12:22:39.090Z,26.70
2023-03-16T12:25:18.225Z,27.10
2023-03-16T12:27:49.377Z,27.50
2023-03-16T12:30:30.287Z,27.90
2023-03-16T12:33:04.033Z,28.30
2023-03-16T12:35:41.625Z,28.50
2023-03-16T12:38:25.886Z,28.50
2023-03-16T12:41:07.471Z,28.20
2023-03-16T12:43:46.762Z,28.30
2023-03-16T12:46:19.289Z,28.50
2023-03-16T12:48:50.962Z,28.60
2023-03-16T12:51:19.204Z,28.80
2023-03-16T12:53:56.389Z,28.90
2023-03-16T12:56:30.902Z,29.30
2023-03-16T12:59:01.355Z,29.50
2023-03-16T13:01:31.570Z,29.50
2023-03-16T13:04:03.859Z,29.30
2023-03-16T13:06:36.486Z,29.20
2023-03-16T13:09:09.750Z,29.40
2023-03-16T13:11:50.430Z,29.70
2023-03-16T13:14:36.473Z,30.00
2023-03-16T13:17:07.118Z,30.10
2023-03-16T13:19:38.055Z,30.20
2023-03-16T13:22:22.072Z,30.30
2023-03-16T13:24:57.506Z,30.70
2023-03-16T13:27:30.050Z,31.00
2023-03-16T13:30:01.089Z,31.40
2023-03-16T13:32:33.666Z,31.80
2023-03-16T13:35:06.010Z,32.00
2023-03-16T13:37:34.529Z,32.10
2023-03-16T13:40:05.485Z,32.10
2023-03-16T13:42:34.956Z,32.10
2023-03-16T13:45:14.396Z,32.00
2023-03-16T13:47:45.533Z,31.80
2023-03-16T13:50:15.832Z,31.60
2023-03-16T13:52:58.690Z,31.60
2023-03-16T13:55:33.144Z,31.70
2023-03-16T13:58:02.580Z,31.90
2023-03-16T14:00:34.679Z,32.10
2023-03-16T14:03:14.411Z,32.10
2023-03-16T14:05:42.836Z,32.10
2023-03-16T14:08:17.871Z,32.10
2023-03-16T14:10:48.261Z,32.00
2023-03-16T14:13:38.510Z,31.80
2023-03-16T14:16:14.257Z,31.80
2023-03-16T14:18:45.995Z,31.80
2023-03-16T14:21:18.377Z,31.70
2023-03-16T14:23:49.061Z,31.70
2023-03-16T14:26:23.310Z,31.60
2023-03-16T14:29:04.196Z,31.50
2023-03-16T14:31:35.482Z,31.20
2023-03-16T14:34:08.625Z,30.90
2023-03-16T14:36:39.111Z,30.60
2023-03-16T14:39:16.870Z,30.30
2023-03-16T14:41:50.492Z,30.00
2023-03-16T14:44:25.364Z,29.50
2023-03-16T14:46:56.401Z,28.70
2023-03-16T14:49:29.049Z,27.40
2023-03-16T14:52:02.095Z,26.10
2023-03-16T14:54:30.939Z,24.90
2023-03-16T14:57:03.857Z,24.00
2023-03-16T14:59:32.669Z,23.20
2023-03-16T15:02:03.150Z,22.60
2023-03-16T15:04:34.944Z,22.20
2023-03-16T15:07:18.659Z,22.00
2023-03-16T15:09:47.108Z,21.80
2023-03-16T15:12:19.793Z,21.60
2023-03-16T15:15:06.616Z,21.40
2023-03-16T15:17:35.078Z,21.30
2023-03-16T15:20:05.233Z,21.00
2023-03-16T15:22:37.228Z,20.80
2023-03-16T15:25:21.082Z,20.50
2023-03-16T15:27:51.150Z,20.20
2023-03-16T15:30:21.814Z,19.90
2023-03-16T15:32:50.739Z,19.70
2023-03-16T15:35:19.933Z,19.50
2023-03-16T15:37:48.603Z,19.30
2023-03-16T15:40:19.991Z,19.20
2023-03-16T15:42:49.895Z,19.10
2023-03-16T15:45:20.616Z,19.10
2023-03-16T15:47:49.728Z,19.00
2023-03-16T15:50:20.858Z,19.00
2023-03-16T15:52:52.701Z,18.90
2023-03-16T15:55:24.269Z,18.80
2023-03-16T15:58:01.460Z,18.70
2023-03-16T16:00:33.114Z,18.60
2023-03-16T16:03:03.183Z,18.60
2023-03-16T16:05:32.507Z,18.50
2023-03-16T16:08:01.039Z,18.50
2023-03-16T16:10:30.119Z,18.30
2023-03-16T16:13:01.428Z,18.20
2023-03-16T16:15:33.799Z,18.00
2023-03-16T16:18:20.970Z,17.80
2023-03-16T16:20:49.996Z,17.60
2023-03-16T16:23:18.366Z,17.40
2023-03-16T16:25:47.104Z,17.30
2023-03-16T16:28:19.776Z,17.10
2023-03-16T16:30:48.434Z,16.90
2023-03-16T16:33:24.969Z,16.80
2023-03-16T16:35:54.285Z,16.60
2023-03-16T16:38:23.500Z,16.50
2023-03-16T16:40:53.390Z,16.50
2023-03-16T16:43:33.889Z,16.60
2023-03-16T16:46:06.168Z,16.80
2023-03-16T16:48:38.060Z,17.20
2023-03-16T16:51:08.110Z,17.70
2023-03-16T16:53:36.844Z,18.20
2023-03-16T16:56:05.788Z,19.00
2023-03-16T16:58:35.972Z,19.60
2023-03-16T17:01:05.177Z,20.00
2023-03-16T17:03:34.486Z,20.10
2023-03-16T17:06:03.170Z,19.90
2023-03-16T17:08:31.642Z,19.30
2023-03-16T17:11:00.266Z,18.70
2023-03-16T17:13:30.507Z,18.10
2023-03-16T17:16:00.557Z,17.40
2023-03-16T17:18:28.941Z,16.90
2023-03-16T17:20:57.922Z,16.30
2023-03-16T17:23:32.622Z,15.90
2023-03-16T17:26:04.462Z,15.40
2023-03-16T17:28:38.731Z,15.00
2023-03-16T17:31:08.587Z,14.60
2023-03-16T17:33:36.816Z,14.20
2023-03-16T17:36:05.627Z,13.90
2023-03-16T17:38:34.210Z,13.50
2023-03-16T17:41:03.333Z,13.20
2023-03-16T17:43:32.999Z,12.90
2023-03-16T17:46:04.428Z,12.60
2023-03-16T17:48:35.454Z,12.30
2023-03-16T17:51:05.509Z,12.00
2023-03-16T17:53:34.870Z,11.70
2023-03-16T17:56:03.909Z,11.50
2023-03-16T17:58:32.602Z,11.20
2023-03-16T18:01:02.627Z,11.00
2023-03-16T18:03:31.433Z,10.80
2023-03-16T18:06:01.585Z,10.60
2023-03-16T18:08:33.473Z,10.50
2023-03-16T18:11:05.737Z,10.30
2023-03-16T18:13:37.317Z,10.10
2023-03-16T18:16:07.491Z,10.00
2023-03-16T18:18:39.638Z,9.80
2023-03-16T18:21:18.018Z,9.70
2023-03-16T18:23:46.281Z,9.60
2023-03-16T18:26:15.556Z,9.40
2023-03-16T18:28:45.681Z,9.30
2023-03-16T18:31:22.495Z,9.20
2023-03-16T18:33:53.768Z,9.10
2023-03-16T18:36:28.211Z,9.00
2023-03-16T18:38:58.608Z,8.90
2023-03-16T18:41:28.541Z,8.80
2023-03-16T18:43:59.705Z,8.70
2023-03-16T18:46:31.675Z,8.60
2023-03-16T18:49:02.306Z,8.50
2023-03-16T18:51:32.311Z,8.40
2023-03-16T18:54:00.533Z,8.30
2023-03-16T18:56:31.276Z,8.20
2023-03-16T18:59:00.156Z,8.20
2023-03-16T19:01:30.469Z,8.10
2023-03-16T19:04:01.130Z,8.00
2023-03-16T19:06:32.534Z,8.00
2023-03-16T19:09:05.573Z,7.90
2023-03-16T19:11:35.404Z,7.90
2023-03-16T19:14:04.454Z,7.80
2023-03-16T19:16:33.629Z,7.80
2023-03-16T19:19:02.358Z,7.70
2023-03-16T19:21:32.748Z,7.70
2023-03-16T19:24:04.125Z,7.60
2023-03-16T19:26:34.752Z,7.60
2023-03-16T19:29:04.480Z,7.50
2023-03-16T19:31:34.291Z,7.40
2023-03-16T19:34:03.370Z,7.40
2023-03-16T19:36:34.317Z,7.30
2023-03-16T19:39:04.134Z,7.30
2023-03-16T19:41:34.346Z,7.20
2023-03-16T19:44:08.292Z,7.10
2023-03-16T19:46:37.171Z,7.10
2023-03-16T19:49:09.964Z,7.10
2023-03-16T19:51:40.384Z,7.00
2023-03-16T19:54:12.284Z,6.90
2023-03-16T19:56:40.883Z,6.90
2023-03-16T19:59:11.090Z,6.90
2023-03-16T20:01:40.159Z,6.80
2023-03-16T20:04:16.255Z,6.80
2023-03-16T20:06:48.732Z,6.80
2023-03-16T20:09:18.265Z,6.70
2023-03-16T20:11:47.811Z,6.70
2023-03-16T20:14:20.569Z,6.70
2023-03-16T20:16:49.047Z,6.70
2023-03-16T20:19:19.741Z,6.70
2023-03-16T20:21:51.628Z,6.70
2023-03-16T20:24:22.240Z,6.70
2023-03-16T20:26:51.497Z,6.70
2023-03-16T20:29:25.368Z,6.70
2023-03-16T20:31:53.654Z,6.70
2023-03-16T20:34:24.726Z,6.60
2023-03-16T20:36:54.849Z,6.60
2023-03-16T20:39:23.452Z,6.60
2023-03-16T20:41:52.364Z,6.50
2023-03-16T20:44:23.565Z,6.50
2023-03-16T20:46:52.402Z,6.50
2023-03-16T20:49:32.409Z,6.40
2023-03-16T20:52:02.462Z,6.40
2023-03-16T20:54:31.363Z,6.30
2023-03-16T20:57:01.201Z,6.30
2023-03-16T20:59:30.316Z,6.30
2023-03-16T21:01:58.543Z,6.30
2023-03-16T21:04:28.761Z,6.40
2023-03-16T21:06:57.718Z,6.40
2023-03-16T21:09:27.784Z,6.40
2023-03-16T21:11:56.414Z,6.50
2023-03-16T21:14:26.270Z,6.50
2023-03-16T21:16:55.470Z,6.50
2023-03-16T21:19:24.845Z,6.40
2023-03-16T21:21:53.364Z,6.40
2023-03-16T21:24:22.085Z,6.20
2023-03-16T21:26:52.252Z,6.10
2023-03-16T21:29:21.970Z,6.00
2023-03-16T21:31:52.009Z,6.00
2023-03-16T21:34:25.518Z,5.90
2023-03-16T21:36:53.918Z,5.80
2023-03-16T21:39:25.065Z,5.80
2023-03-16T21:41:55.255Z,5.70
2023-03-16T21:44:23.796Z,5.60
2023-03-16T21:46:52.443Z,5.60
2023-03-16T21:49:20.904Z,5.50
2023-03-16T21:51:50.678Z,5.50
2023-03-16T21:54:19.217Z,5.50
2023-03-16T21:56:48.710Z,5.40
2023-03-16T21:59:18.153Z,5.40
2023-03-16T22:02:00.714Z,5.40
2023-03-16T22:04:29.382Z,5.30
2023-03-16T22:06:57.476Z,5.30
2023-03-16T22:09:29.956Z,5.30
2023-03-16T22:11:58.424Z,5.30
2023-03-16T22:14:28.405Z,5.20
2023-03-16T22:16:56.938Z,5.20
2023-03-16T22:19:27.148Z,5.20
2023-03-16T22:21:56.791Z,5.20
2023-03-16T22:24:27.379Z,5.20
2023-03-16T22:26:56.665Z,5.20
2023-03-16T22:29:28.690Z,5.20
2023-03-16T22:31:59.508Z,5.10
2023-03-16T22:34:32.343Z,5.10
2023-03-16T22:37:02.321Z,5.10
2023-03-16T22:39:33.792Z,5.10
2023-03-16T22:42:01.922Z,5.10
2023-03-16T22:44:31.414Z,5.00
2023-03-16T22:46:59.530Z,5.10
2023-03-16T22:49:29.264Z,5.00
2023-03-16T22:51:58.780Z,5.00
2023-03-16T22:54:29.526Z,5.00
2023-03-16T22:56:57.883Z,5.00
2023-03-16T22:59:27.708Z,4.90
2023-03-16T23:01:57.651Z,4.90
2023-03-16T23:04:30.279Z,4.90
2023-03-16T23:06:59.169Z,4.80
2023-03-16T23:09:27.425Z,4.70
2023-03-16T23:11:57.484Z,4.70
2023-03-16T23:14:28.441Z,4.60
2023-03-16T23:16:58.128Z,4.50
2023-03-16T23:19:29.678Z,4.50
2023-03-16T23:22:01.094Z,4.40
2023-03-16T23:24:29.382Z,4.40
2023-03-16T23:26:57.706Z,4.30
2023-03-16T23:29:26.914Z,4.20
2023-03-16T23:31:55.101Z,4.20
2023-03-16T23:34:26.334Z,4.20
2023-03-16T23:36:54.995Z,4.10
2023-03-16T23:39:23.282Z,4.10
2023-03-16T23:41:52.972Z,4.00
2023-03-16T23:44:25.965Z,4.00
2023-03-16T23:46:54.728Z,4.00
2023-03-16T23:49:27.072Z,4.00
2023-03-16T23:51:58.660Z,4.00
2023-03-16T23:54:29.623Z,4.10
2023-03-16T23:56:58.400Z,4.10
2023-03-16T23:59:27.711Z,4.10
